sensor_id;sensor_type;location;lat;lon;timestamp;P1;durP1;ratioP1;P2;durP2;ratioP2
79243;SDS011;68672;42.676;23.356;2023-06-22T00:01:57;11.38;;;7.65;;
79243;SDS011;68672;42.676;23.356;2023-06-22T00:04:23;10.98;;;7.40;;
79243;SDS011;68672;42.676;23.356;2023-06-22T00:06:48;9.88;;;7.13;;
79243;SDS011;68672;42.676;23.356;2023-06-22T00:09:13;8.65;;;6.47;;
79243;SDS011;68672;42.676;23.356;2023-06-22T00:11:39;10.38;;;7.82;;
79243;SDS011;68672;42.676;23.356;2023-06-22T00:14:04;9.95;;;7.45;;
79243;SDS011;68672;42.676;23.356;2023-06-22T00:16:40;12.85;;;7.95;;
79243;SDS011;68672;42.676;23.356;2023-06-22T00:19:07;10.05;;;7.40;;
79243;SDS011;68672;42.676;23.356;2023-06-22T00:21:36;10.95;;;7.70;;
79243;SDS011;68672;42.676;23.356;2023-06-22T00:24:03;11.80;;;7.88;;
79243;SDS011;68672;42.676;23.356;2023-06-22T00:26:29;11.75;;;8.32;;
79243;SDS011;68672;42.676;23.356;2023-06-22T00:28:55;9.73;;;6.97;;
79243;SDS011;68672;42.676;23.356;2023-06-22T00:31:20;9.85;;;7.30;;
79243;SDS011;68672;42.676;23.356;2023-06-22T00:33:45;10.32;;;7.38;;
79243;SDS011;68672;42.676;23.356;2023-06-22T00:36:11;9.80;;;7.20;;
79243;SDS011;68672;42.676;23.356;2023-06-22T00:38:41;11.40;;;7.72;;
79243;SDS011;68672;42.676;23.356;2023-06-22T00:41:06;10.18;;;7.07;;
79243;SDS011;68672;42.676;23.356;2023-06-22T00:43:32;10.18;;;7.55;;
79243;SDS011;68672;42.676;23.356;2023-06-22T00:45:57;10.32;;;8.00;;
79243;SDS011;68672;42.676;23.356;2023-06-22T00:48:23;10.02;;;6.93;;
79243;SDS011;68672;42.676;23.356;2023-06-22T00:50:52;11.10;;;7.22;;
79243;SDS011;68672;42.676;23.356;2023-06-22T00:53:21;10.25;;;7.47;;
79243;SDS011;68672;42.676;23.356;2023-06-22T00:55:46;10.73;;;7.32;;
79243;SDS011;68672;42.676;23.356;2023-06-22T00:58:12;10.73;;;7.43;;
79243;SDS011;68672;42.676;23.356;2023-06-22T01:00:39;10.52;;;7.25;;
79243;SDS011;68672;42.676;23.356;2023-06-22T01:03:06;11.88;;;7.88;;
79243;SDS011;68672;42.676;23.356;2023-06-22T01:05:35;11.77;;;8.02;;
79243;SDS011;68672;42.676;23.356;2023-06-22T01:08:20;11.02;;;7.82;;
79243;SDS011;68672;42.676;23.356;2023-06-22T01:13:32;10.82;;;8.13;;
79243;SDS011;68672;42.676;23.356;2023-06-22T01:16:11;9.80;;;7.90;;
79243;SDS011;68672;42.676;23.356;2023-06-22T01:18:42;9.60;;;7.90;;
79243;SDS011;68672;42.676;23.356;2023-06-22T01:21:10;10.52;;;7.38;;
79243;SDS011;68672;42.676;23.356;2023-06-22T01:23:53;11.57;;;8.13;;
79243;SDS011;68672;42.676;23.356;2023-06-22T01:26:42;10.68;;;7.20;;
79243;SDS011;68672;42.676;23.356;2023-06-22T01:29:31;11.18;;;7.95;;
79243;SDS011;68672;42.676;23.356;2023-06-22T01:31:59;10.77;;;7.20;;
79243;SDS011;68672;42.676;23.356;2023-06-22T01:34:26;11.68;;;8.25;;
79243;SDS011;68672;42.676;23.356;2023-06-22T01:36:53;12.43;;;7.53;;
79243;SDS011;68672;42.676;23.356;2023-06-22T01:39:19;9.98;;;7.35;;
79243;SDS011;68672;42.676;23.356;2023-06-22T01:41:47;11.90;;;8.27;;
79243;SDS011;68672;42.676;23.356;2023-06-22T01:44:16;12.18;;;8.02;;
79243;SDS011;68672;42.676;23.356;2023-06-22T01:46:42;9.40;;;7.30;;
79243;SDS011;68672;42.676;23.356;2023-06-22T01:49:10;9.02;;;7.10;;
79243;SDS011;68672;42.676;23.356;2023-06-22T01:51:36;11.30;;;7.68;;
79243;SDS011;68672;42.676;23.356;2023-06-22T01:54:01;9.82;;;6.95;;
79243;SDS011;68672;42.676;23.356;2023-06-22T01:56:27;10.60;;;7.38;;
79243;SDS011;68672;42.676;23.356;2023-06-22T01:59:03;11.40;;;8.07;;
79243;SDS011;68672;42.676;23.356;2023-06-22T02:01:42;10.55;;;7.47;;
79243;SDS011;68672;42.676;23.356;2023-06-22T02:04:27;10.70;;;7.43;;
79243;SDS011;68672;42.676;23.356;2023-06-22T02:07:01;9.57;;;7.40;;
79243;SDS011;68672;42.676;23.356;2023-06-22T02:09:32;11.63;;;7.10;;
79243;SDS011;68672;42.676;23.356;2023-06-22T02:12:00;9.95;;;6.93;;
79243;SDS011;68672;42.676;23.356;2023-06-22T02:14:29;14.93;;;8.90;;
79243;SDS011;68672;42.676;23.356;2023-06-22T02:16:54;10.25;;;7.72;;
79243;SDS011;68672;42.676;23.356;2023-06-22T02:19:23;10.88;;;8.10;;
79243;SDS011;68672;42.676;23.356;2023-06-22T02:21:50;10.75;;;8.02;;
79243;SDS011;68672;42.676;23.356;2023-06-22T02:24:15;12.00;;;8.43;;
79243;SDS011;68672;42.676;23.356;2023-06-22T02:26:40;10.77;;;7.28;;
79243;SDS011;68672;42.676;23.356;2023-06-22T02:29:07;9.95;;;7.88;;
79243;SDS011;68672;42.676;23.356;2023-06-22T02:31:33;11.30;;;8.40;;
79243;SDS011;68672;42.676;23.356;2023-06-22T02:33:59;10.38;;;7.43;;
79243;SDS011;68672;42.676;23.356;2023-06-22T02:36:27;11.63;;;7.63;;
79243;SDS011;68672;42.676;23.356;2023-06-22T02:38:55;11.52;;;8.27;;
79243;SDS011;68672;42.676;23.356;2023-06-22T02:41:24;11.05;;;8.23;;
79243;SDS011;68672;42.676;23.356;2023-06-22T02:43:49;9.95;;;7.85;;
79243;SDS011;68672;42.676;23.356;2023-06-22T02:46:14;10.60;;;8.30;;
79243;SDS011;68672;42.676;23.356;2023-06-22T02:48:43;10.30;;;8.02;;
79243;SDS011;68672;42.676;23.356;2023-06-22T02:51:08;14.00;;;8.63;;
79243;SDS011;68672;42.676;23.356;2023-06-22T02:53:34;10.95;;;7.85;;
79243;SDS011;68672;42.676;23.356;2023-06-22T02:56:01;12.93;;;8.02;;
79243;SDS011;68672;42.676;23.356;2023-06-22T02:58:28;10.32;;;7.40;;
79243;SDS011;68672;42.676;23.356;2023-06-22T03:00:53;11.88;;;7.18;;
79243;SDS011;68672;42.676;23.356;2023-06-22T03:03:19;10.55;;;8.15;;
79243;SDS011;68672;42.676;23.356;2023-06-22T03:05:45;10.48;;;7.57;;
79243;SDS011;68672;42.676;23.356;2023-06-22T03:08:10;10.52;;;7.68;;
79243;SDS011;68672;42.676;23.356;2023-06-22T03:10:36;8.52;;;6.95;;
79243;SDS011;68672;42.676;23.356;2023-06-22T03:13:01;11.35;;;8.07;;
79243;SDS011;68672;42.676;23.356;2023-06-22T03:15:27;12.30;;;8.20;;
79243;SDS011;68672;42.676;23.356;2023-06-22T03:17:57;11.57;;;7.28;;
79243;SDS011;68672;42.676;23.356;2023-06-22T03:20:22;8.93;;;7.25;;
79243;SDS011;68672;42.676;23.356;2023-06-22T03:22:48;10.65;;;7.53;;
79243;SDS011;68672;42.676;23.356;2023-06-22T03:25:13;13.93;;;7.28;;
79243;SDS011;68672;42.676;23.356;2023-06-22T03:27:39;11.23;;;8.20;;
79243;SDS011;68672;42.676;23.356;2023-06-22T03:30:06;10.35;;;7.07;;
79243;SDS011;68672;42.676;23.356;2023-06-22T03:32:33;11.77;;;8.23;;
79243;SDS011;68672;42.676;23.356;2023-06-22T03:34:58;10.10;;;8.30;;
79243;SDS011;68672;42.676;23.356;2023-06-22T03:37:27;12.07;;;7.28;;
79243;SDS011;68672;42.676;23.356;2023-06-22T03:39:53;10.05;;;6.93;;
79243;SDS011;68672;42.676;23.356;2023-06-22T03:42:18;13.65;;;8.32;;
79243;SDS011;68672;42.676;23.356;2023-06-22T03:44:47;9.15;;;7.82;;
79243;SDS011;68672;42.676;23.356;2023-06-22T03:47:13;11.80;;;7.15;;
79243;SDS011;68672;42.676;23.356;2023-06-22T03:49:41;11.57;;;7.35;;
79243;SDS011;68672;42.676;23.356;2023-06-22T03:52:09;11.63;;;7.78;;
79243;SDS011;68672;42.676;23.356;2023-06-22T03:54:36;10.00;;;7.40;;
79243;SDS011;68672;42.676;23.356;2023-06-22T03:57:01;11.05;;;7.50;;
79243;SDS011;68672;42.676;23.356;2023-06-22T03:59:27;8.55;;;6.65;;
79243;SDS011;68672;42.676;23.356;2023-06-22T04:01:52;8.98;;;7.25;;
79243;SDS011;68672;42.676;23.356;2023-06-22T04:04:18;10.70;;;7.53;;
79243;SDS011;68672;42.676;23.356;2023-06-22T04:06:43;10.15;;;6.80;;
79243;SDS011;68672;42.676;23.356;2023-06-22T04:09:09;10.82;;;7.40;;
79243;SDS011;68672;42.676;23.356;2023-06-22T04:11:35;14.60;;;8.35;;
79243;SDS011;68672;42.676;23.356;2023-06-22T04:14:03;12.70;;;7.47;;
79243;SDS011;68672;42.676;23.356;2023-06-22T04:16:29;8.68;;;7.03;;
79243;SDS011;68672;42.676;23.356;2023-06-22T04:18:54;11.43;;;7.93;;
79243;SDS011;68672;42.676;23.356;2023-06-22T04:21:19;10.60;;;7.82;;
79243;SDS011;68672;42.676;23.356;2023-06-22T04:23:45;12.40;;;8.15;;
79243;SDS011;68672;42.676;23.356;2023-06-22T04:26:11;9.25;;;7.60;;
79243;SDS011;68672;42.676;23.356;2023-06-22T04:28:37;14.02;;;9.13;;
79243;SDS011;68672;42.676;23.356;2023-06-22T04:31:02;11.82;;;8.52;;
79243;SDS011;68672;42.676;23.356;2023-06-22T04:33:28;13.90;;;8.13;;
79243;SDS011;68672;42.676;23.356;2023-06-22T04:35:59;12.48;;;8.32;;
79243;SDS011;68672;42.676;23.356;2023-06-22T04:38:29;13.27;;;8.77;;
79243;SDS011;68672;42.676;23.356;2023-06-22T04:40:58;13.70;;;9.35;;
79243;SDS011;68672;42.676;23.356;2023-06-22T04:43:26;10.93;;;7.60;;
79243;SDS011;68672;42.676;23.356;2023-06-22T04:45:55;11.70;;;8.18;;
79243;SDS011;68672;42.676;23.356;2023-06-22T04:48:20;11.45;;;9.05;;
79243;SDS011;68672;42.676;23.356;2023-06-22T04:50:46;11.27;;;8.18;;
79243;SDS011;68672;42.676;23.356;2023-06-22T04:53:14;13.13;;;8.73;;
79243;SDS011;68672;42.676;23.356;2023-06-22T04:55:39;13.20;;;8.93;;
79243;SDS011;68672;42.676;23.356;2023-06-22T04:58:06;13.68;;;8.65;;
79243;SDS011;68672;42.676;23.356;2023-06-22T05:00:32;12.13;;;8.63;;
79243;SDS011;68672;42.676;23.356;2023-06-22T05:03:01;14.00;;;8.80;;
79243;SDS011;68672;42.676;23.356;2023-06-22T05:05:28;14.05;;;8.95;;
79243;SDS011;68672;42.676;23.356;2023-06-22T05:07:56;16.08;;;8.88;;
79243;SDS011;68672;42.676;23.356;2023-06-22T05:10:24;11.65;;;8.80;;
79243;SDS011;68672;42.676;23.356;2023-06-22T05:12:50;14.27;;;9.65;;
79243;SDS011;68672;42.676;23.356;2023-06-22T05:15:15;14.88;;;9.48;;
79243;SDS011;68672;42.676;23.356;2023-06-22T05:17:41;10.75;;;8.48;;
79243;SDS011;68672;42.676;23.356;2023-06-22T05:20:16;11.65;;;8.60;;
79243;SDS011;68672;42.676;23.356;2023-06-22T05:22:42;11.48;;;8.57;;
79243;SDS011;68672;42.676;23.356;2023-06-22T05:25:09;12.20;;;8.60;;
79243;SDS011;68672;42.676;23.356;2023-06-22T05:27:38;10.95;;;8.38;;
79243;SDS011;68672;42.676;23.356;2023-06-22T05:30:07;12.02;;;8.63;;
79243;SDS011;68672;42.676;23.356;2023-06-22T05:32:34;11.57;;;8.30;;
79243;SDS011;68672;42.676;23.356;2023-06-22T05:35:02;10.73;;;8.10;;
79243;SDS011;68672;42.676;23.356;2023-06-22T05:37:28;10.82;;;8.55;;
79243;SDS011;68672;42.676;23.356;2023-06-22T05:39:54;11.35;;;8.63;;
79243;SDS011;68672;42.676;23.356;2023-06-22T05:42:20;13.88;;;7.88;;
79243;SDS011;68672;42.676;23.356;2023-06-22T05:44:46;13.98;;;8.18;;
79243;SDS011;68672;42.676;23.356;2023-06-22T05:47:15;11.10;;;8.40;;
79243;SDS011;68672;42.676;23.356;2023-06-22T05:49:40;12.40;;;8.25;;
79243;SDS011;68672;42.676;23.356;2023-06-22T05:52:09;12.13;;;8.32;;
79243;SDS011;68672;42.676;23.356;2023-06-22T05:54:37;14.57;;;9.05;;
79243;SDS011;68672;42.676;23.356;2023-06-22T05:57:06;12.10;;;8.77;;
79243;SDS011;68672;42.676;23.356;2023-06-22T05:59:32;14.82;;;8.75;;
79243;SDS011;68672;42.676;23.356;2023-06-22T06:01:57;13.18;;;8.85;;
79243;SDS011;68672;42.676;23.356;2023-06-22T06:04:23;12.93;;;8.50;;
79243;SDS011;68672;42.676;23.356;2023-06-22T06:06:49;12.10;;;8.95;;
79243;SDS011;68672;42.676;23.356;2023-06-22T06:09:14;11.65;;;8.75;;
79243;SDS011;68672;42.676;23.356;2023-06-22T06:11:39;12.20;;;8.52;;
79243;SDS011;68672;42.676;23.356;2023-06-22T06:14:05;13.40;;;9.88;;
79243;SDS011;68672;42.676;23.356;2023-06-22T06:16:31;12.15;;;8.57;;
79243;SDS011;68672;42.676;23.356;2023-06-22T06:18:57;10.43;;;8.23;;
79243;SDS011;68672;42.676;23.356;2023-06-22T06:21:23;11.60;;;8.60;;
79243;SDS011;68672;42.676;23.356;2023-06-22T06:23:48;12.10;;;9.05;;
79243;SDS011;68672;42.676;23.356;2023-06-22T06:26:17;13.13;;;9.38;;
79243;SDS011;68672;42.676;23.356;2023-06-22T06:28:43;12.43;;;9.00;;
79243;SDS011;68672;42.676;23.356;2023-06-22T06:31:08;11.07;;;9.00;;
79243;SDS011;68672;42.676;23.356;2023-06-22T06:33:34;14.82;;;8.88;;
79243;SDS011;68672;42.676;23.356;2023-06-22T06:36:01;9.63;;;8.13;;
79243;SDS011;68672;42.676;23.356;2023-06-22T06:38:28;15.15;;;9.07;;
79243;SDS011;68672;42.676;23.356;2023-06-22T06:40:57;13.20;;;9.00;;
79243;SDS011;68672;42.676;23.356;2023-06-22T06:43:23;11.57;;;7.85;;
79243;SDS011;68672;42.676;23.356;2023-06-22T06:45:49;12.70;;;9.30;;
79243;SDS011;68672;42.676;23.356;2023-06-22T06:48:15;12.00;;;8.10;;
79243;SDS011;68672;42.676;23.356;2023-06-22T06:50:43;10.48;;;7.82;;
79243;SDS011;68672;42.676;23.356;2023-06-22T06:53:09;12.40;;;7.90;;
79243;SDS011;68672;42.676;23.356;2023-06-22T06:55:34;11.27;;;7.93;;
79243;SDS011;68672;42.676;23.356;2023-06-22T06:58:00;11.68;;;8.25;;
79243;SDS011;68672;42.676;23.356;2023-06-22T07:00:27;9.82;;;7.88;;
79243;SDS011;68672;42.676;23.356;2023-06-22T07:02:53;10.23;;;8.35;;
79243;SDS011;68672;42.676;23.356;2023-06-22T07:05:18;10.75;;;7.95;;
79243;SDS011;68672;42.676;23.356;2023-06-22T07:07:44;10.23;;;8.25;;
79243;SDS011;68672;42.676;23.356;2023-06-22T07:10:09;10.60;;;8.18;;
79243;SDS011;68672;42.676;23.356;2023-06-22T07:12:35;11.68;;;7.78;;
79243;SDS011;68672;42.676;23.356;2023-06-22T07:15:04;10.30;;;8.10;;
79243;SDS011;68672;42.676;23.356;2023-06-22T07:17:33;11.70;;;8.35;;
79243;SDS011;68672;42.676;23.356;2023-06-22T07:19:59;11.75;;;8.27;;
79243;SDS011;68672;42.676;23.356;2023-06-22T07:22:27;10.45;;;8.52;;
79243;SDS011;68672;42.676;23.356;2023-06-22T07:24:55;9.65;;;7.63;;
79243;SDS011;68672;42.676;23.356;2023-06-22T07:27:21;13.18;;;9.48;;
79243;SDS011;68672;42.676;23.356;2023-06-22T07:29:46;11.20;;;8.65;;
79243;SDS011;68672;42.676;23.356;2023-06-22T07:32:12;11.60;;;8.60;;
79243;SDS011;68672;42.676;23.356;2023-06-22T07:34:38;11.88;;;7.97;;
79243;SDS011;68672;42.676;23.356;2023-06-22T07:37:03;13.15;;;8.75;;
79243;SDS011;68672;42.676;23.356;2023-06-22T07:39:32;12.80;;;8.98;;
79243;SDS011;68672;42.676;23.356;2023-06-22T07:41:57;12.95;;;9.02;;
79243;SDS011;68672;42.676;23.356;2023-06-22T07:44:23;11.77;;;8.23;;
79243;SDS011;68672;42.676;23.356;2023-06-22T07:46:49;9.70;;;7.78;;
79243;SDS011;68672;42.676;23.356;2023-06-22T07:49:14;12.80;;;8.48;;
79243;SDS011;68672;42.676;23.356;2023-06-22T07:51:39;10.65;;;8.02;;
79243;SDS011;68672;42.676;23.356;2023-06-22T07:54:05;11.52;;;8.88;;
79243;SDS011;68672;42.676;23.356;2023-06-22T07:56:30;10.90;;;7.63;;
79243;SDS011;68672;42.676;23.356;2023-06-22T07:58:57;9.80;;;8.00;;
79243;SDS011;68672;42.676;23.356;2023-06-22T08:01:24;9.75;;;7.65;;
79243;SDS011;68672;42.676;23.356;2023-06-22T08:03:49;11.57;;;8.55;;
79243;SDS011;68672;42.676;23.356;2023-06-22T08:06:15;11.48;;;8.80;;
79243;SDS011;68672;42.676;23.356;2023-06-22T08:08:41;11.55;;;7.47;;
79243;SDS011;68672;42.676;23.356;2023-06-22T08:11:07;10.80;;;8.10;;
79243;SDS011;68672;42.676;23.356;2023-06-22T08:13:33;9.95;;;7.32;;
79243;SDS011;68672;42.676;23.356;2023-06-22T08:15:59;11.15;;;8.50;;
79243;SDS011;68672;42.676;23.356;2023-06-22T08:18:24;10.98;;;8.13;;
79243;SDS011;68672;42.676;23.356;2023-06-22T08:20:49;12.00;;;8.10;;
79243;SDS011;68672;42.676;23.356;2023-06-22T08:23:15;12.38;;;8.40;;
79243;SDS011;68672;42.676;23.356;2023-06-22T08:25:40;13.05;;;7.60;;
79243;SDS011;68672;42.676;23.356;2023-06-22T08:28:06;10.48;;;8.48;;
79243;SDS011;68672;42.676;23.356;2023-06-22T08:30:32;13.95;;;9.57;;
79243;SDS011;68672;42.676;23.356;2023-06-22T08:32:57;9.68;;;8.18;;
79243;SDS011;68672;42.676;23.356;2023-06-22T08:35:23;11.27;;;8.70;;
79243;SDS011;68672;42.676;23.356;2023-06-22T08:37:48;13.32;;;8.15;;
79243;SDS011;68672;42.676;23.356;2023-06-22T08:40:24;9.35;;;7.70;;
79243;SDS011;68672;42.676;23.356;2023-06-22T08:42:50;10.60;;;8.23;;
79243;SDS011;68672;42.676;23.356;2023-06-22T08:45:15;9.38;;;7.35;;
79243;SDS011;68672;42.676;23.356;2023-06-22T08:47:43;11.30;;;7.90;;
79243;SDS011;68672;42.676;23.356;2023-06-22T08:50:09;12.40;;;8.43;;
79243;SDS011;68672;42.676;23.356;2023-06-22T08:52:36;11.75;;;8.27;;
79243;SDS011;68672;42.676;23.356;2023-06-22T08:55:02;10.43;;;8.55;;
79243;SDS011;68672;42.676;23.356;2023-06-22T08:57:28;12.32;;;8.48;;
79243;SDS011;68672;42.676;23.356;2023-06-22T08:59:57;9.98;;;7.75;;
79243;SDS011;68672;42.676;23.356;2023-06-22T09:02:26;10.45;;;8.05;;
79243;SDS011;68672;42.676;23.356;2023-06-22T09:04:55;10.55;;;8.45;;
79243;SDS011;68672;42.676;23.356;2023-06-22T09:07:24;11.05;;;8.45;;
79243;SDS011;68672;42.676;23.356;2023-06-22T09:09:51;12.45;;;8.23;;
79243;SDS011;68672;42.676;23.356;2023-06-22T09:12:20;13.18;;;8.43;;
79243;SDS011;68672;42.676;23.356;2023-06-22T09:14:49;10.55;;;8.82;;
79243;SDS011;68672;42.676;23.356;2023-06-22T09:17:14;10.95;;;8.10;;
79243;SDS011;68672;42.676;23.356;2023-06-22T09:19:40;9.88;;;7.35;;
79243;SDS011;68672;42.676;23.356;2023-06-22T09:22:05;9.05;;;6.55;;
79243;SDS011;68672;42.676;23.356;2023-06-22T09:24:31;8.13;;;6.93;;
79243;SDS011;68672;42.676;23.356;2023-06-22T09:26:57;8.85;;;7.18;;
79243;SDS011;68672;42.676;23.356;2023-06-22T09:29:29;11.35;;;7.60;;
79243;SDS011;68672;42.676;23.356;2023-06-22T09:31:54;9.77;;;7.28;;
79243;SDS011;68672;42.676;23.356;2023-06-22T09:34:20;8.73;;;7.00;;
79243;SDS011;68672;42.676;23.356;2023-06-22T09:36:46;13.13;;;8.45;;
79243;SDS011;68672;42.676;23.356;2023-06-22T09:39:12;10.48;;;8.25;;
79243;SDS011;68672;42.676;23.356;2023-06-22T09:41:37;10.57;;;7.88;;
79243;SDS011;68672;42.676;23.356;2023-06-22T09:44:03;10.25;;;7.53;;
79243;SDS011;68672;42.676;23.356;2023-06-22T09:46:29;9.50;;;7.20;;
79243;SDS011;68672;42.676;23.356;2023-06-22T09:48:54;9.82;;;7.60;;
79243;SDS011;68672;42.676;23.356;2023-06-22T09:51:20;10.88;;;8.25;;
79243;SDS011;68672;42.676;23.356;2023-06-22T09:53:46;9.00;;;7.18;;
79243;SDS011;68672;42.676;23.356;2023-06-22T09:56:15;11.35;;;8.35;;
79243;SDS011;68672;42.676;23.356;2023-06-22T09:58:44;12.07;;;8.63;;
79243;SDS011;68672;42.676;23.356;2023-06-22T10:01:11;10.75;;;8.52;;
79243;SDS011;68672;42.676;23.356;2023-06-22T10:03:37;11.43;;;8.73;;
79243;SDS011;68672;42.676;23.356;2023-06-22T10:06:02;9.50;;;7.80;;
79243;SDS011;68672;42.676;23.356;2023-06-22T10:08:28;10.80;;;8.15;;
79243;SDS011;68672;42.676;23.356;2023-06-22T10:10:54;10.25;;;7.30;;
79243;SDS011;68672;42.676;23.356;2023-06-22T10:13:19;10.07;;;7.70;;
79243;SDS011;68672;42.676;23.356;2023-06-22T10:15:45;8.93;;;7.55;;
79243;SDS011;68672;42.676;23.356;2023-06-22T10:18:15;10.27;;;7.57;;
79243;SDS011;68672;42.676;23.356;2023-06-22T10:20:41;8.57;;;7.57;;
79243;SDS011;68672;42.676;23.356;2023-06-22T10:23:06;11.30;;;8.82;;
79243;SDS011;68672;42.676;23.356;2023-06-22T10:25:32;9.55;;;7.25;;
79243;SDS011;68672;42.676;23.356;2023-06-22T10:27:57;9.10;;;6.95;;
79243;SDS011;68672;42.676;23.356;2023-06-22T10:30:23;8.73;;;7.68;;
79243;SDS011;68672;42.676;23.356;2023-06-22T10:32:48;8.25;;;6.68;;
79243;SDS011;68672;42.676;23.356;2023-06-22T10:35:14;7.85;;;6.50;;
79243;SDS011;68672;42.676;23.356;2023-06-22T10:37:43;8.93;;;6.75;;
79243;SDS011;68672;42.676;23.356;2023-06-22T10:40:13;7.10;;;6.40;;
79243;SDS011;68672;42.676;23.356;2023-06-22T10:42:40;7.28;;;6.30;;
79243;SDS011;68672;42.676;23.356;2023-06-22T10:45:06;9.55;;;6.25;;
79243;SDS011;68672;42.676;23.356;2023-06-22T10:47:32;7.55;;;6.22;;
79243;SDS011;68672;42.676;23.356;2023-06-22T10:49:58;8.45;;;6.78;;
79243;SDS011;68672;42.676;23.356;2023-06-22T10:52:23;9.27;;;6.45;;
79243;SDS011;68672;42.676;23.356;2023-06-22T10:54:51;7.65;;;6.85;;
79243;SDS011;68672;42.676;23.356;2023-06-22T10:57:17;9.68;;;7.35;;
79243;SDS011;68672;42.676;23.356;2023-06-22T10:59:43;9.38;;;7.13;;
79243;SDS011;68672;42.676;23.356;2023-06-22T11:02:08;8.38;;;6.32;;
79243;SDS011;68672;42.676;23.356;2023-06-22T11:04:34;8.00;;;6.78;;
79243;SDS011;68672;42.676;23.356;2023-06-22T11:07:00;7.07;;;6.38;;
79243;SDS011;68672;42.676;23.356;2023-06-22T11:09:25;6.28;;;5.68;;
79243;SDS011;68672;42.676;23.356;2023-06-22T11:11:51;8.90;;;6.97;;
79243;SDS011;68672;42.676;23.356;2023-06-22T11:14:20;7.78;;;6.32;;
79243;SDS011;68672;42.676;23.356;2023-06-22T11:16:46;7.78;;;6.57;;
79243;SDS011;68672;42.676;23.356;2023-06-22T11:19:11;8.60;;;6.55;;
79243;SDS011;68672;42.676;23.356;2023-06-22T11:21:40;7.65;;;6.85;;
79243;SDS011;68672;42.676;23.356;2023-06-22T11:24:05;8.43;;;6.82;;
79243;SDS011;68672;42.676;23.356;2023-06-22T11:26:31;8.63;;;6.95;;
79243;SDS011;68672;42.676;23.356;2023-06-22T11:28:57;7.72;;;6.78;;
79243;SDS011;68672;42.676;23.356;2023-06-22T11:31:23;6.85;;;5.82;;
79243;SDS011;68672;42.676;23.356;2023-06-22T11:33:48;7.88;;;6.40;;
79243;SDS011;68672;42.676;23.356;2023-06-22T11:36:14;9.70;;;6.78;;
79243;SDS011;68672;42.676;23.356;2023-06-22T11:38:40;7.07;;;6.35;;
79243;SDS011;68672;42.676;23.356;2023-06-22T11:41:06;7.78;;;6.50;;
79243;SDS011;68672;42.676;23.356;2023-06-22T11:43:37;7.15;;;6.30;;
79243;SDS011;68672;42.676;23.356;2023-06-22T11:46:03;7.15;;;5.97;;
79243;SDS011;68672;42.676;23.356;2023-06-22T11:48:32;6.80;;;5.55;;
79243;SDS011;68672;42.676;23.356;2023-06-22T11:50:57;8.23;;;6.45;;
79243;SDS011;68672;42.676;23.356;2023-06-22T11:53:24;7.63;;;6.75;;
79243;SDS011;68672;42.676;23.356;2023-06-22T11:55:50;8.55;;;6.05;;
79243;SDS011;68672;42.676;23.356;2023-06-22T11:58:16;7.93;;;6.55;;
79243;SDS011;68672;42.676;23.356;2023-06-22T12:00:41;8.55;;;6.60;;
79243;SDS011;68672;42.676;23.356;2023-06-22T12:03:07;7.28;;;5.88;;
79243;SDS011;68672;42.676;23.356;2023-06-22T12:05:34;9.07;;;6.70;;
79243;SDS011;68672;42.676;23.356;2023-06-22T12:07:59;6.40;;;5.78;;
79243;SDS011;68672;42.676;23.356;2023-06-22T12:10:25;7.85;;;6.40;;
79243;SDS011;68672;42.676;23.356;2023-06-22T12:12:53;8.68;;;5.82;;
79243;SDS011;68672;42.676;23.356;2023-06-22T12:15:19;8.07;;;6.82;;
79243;SDS011;68672;42.676;23.356;2023-06-22T12:17:44;7.53;;;6.22;;
79243;SDS011;68672;42.676;23.356;2023-06-22T12:20:10;7.68;;;6.10;;
79243;SDS011;68672;42.676;23.356;2023-06-22T12:22:35;6.97;;;6.25;;
79243;SDS011;68672;42.676;23.356;2023-06-22T12:25:02;9.63;;;7.00;;
79243;SDS011;68672;42.676;23.356;2023-06-22T12:27:31;7.72;;;6.45;;
79243;SDS011;68672;42.676;23.356;2023-06-22T12:29:56;7.38;;;6.25;;
79243;SDS011;68672;42.676;23.356;2023-06-22T12:32:22;8.27;;;6.57;;
79243;SDS011;68672;42.676;23.356;2023-06-22T12:34:47;7.35;;;6.50;;
79243;SDS011;68672;42.676;23.356;2023-06-22T12:37:13;7.60;;;6.30;;
79243;SDS011;68672;42.676;23.356;2023-06-22T12:39:40;7.40;;;6.18;;
79243;SDS011;68672;42.676;23.356;2023-06-22T12:42:06;7.35;;;6.35;;
79243;SDS011;68672;42.676;23.356;2023-06-22T12:44:37;8.52;;;7.13;;
79243;SDS011;68672;42.676;23.356;2023-06-22T12:47:06;8.13;;;6.28;;
79243;SDS011;68672;42.676;23.356;2023-06-22T12:49:33;8.15;;;6.72;;
79243;SDS011;68672;42.676;23.356;2023-06-22T12:52:00;7.18;;;6.35;;
79243;SDS011;68672;42.676;23.356;2023-06-22T12:54:25;8.98;;;6.72;;
79243;SDS011;68672;42.676;23.356;2023-06-22T12:56:51;8.85;;;6.53;;
79243;SDS011;68672;42.676;23.356;2023-06-22T12:59:16;8.60;;;5.70;;
79243;SDS011;68672;42.676;23.356;2023-06-22T13:01:44;10.30;;;6.35;;
79243;SDS011;68672;42.676;23.356;2023-06-22T13:04:10;9.88;;;6.55;;
79243;SDS011;68672;42.676;23.356;2023-06-22T13:06:39;9.48;;;6.97;;
79243;SDS011;68672;42.676;23.356;2023-06-22T13:09:05;11.85;;;7.07;;
79243;SDS011;68672;42.676;23.356;2023-06-22T13:11:30;11.73;;;7.72;;
79243;SDS011;68672;42.676;23.356;2023-06-22T13:13:59;10.23;;;7.60;;
79243;SDS011;68672;42.676;23.356;2023-06-22T13:16:24;12.00;;;7.70;;
79243;SDS011;68672;42.676;23.356;2023-06-22T13:18:49;10.52;;;7.78;;
79243;SDS011;68672;42.676;23.356;2023-06-22T13:21:15;13.82;;;7.95;;
79243;SDS011;68672;42.676;23.356;2023-06-22T13:23:40;11.35;;;7.95;;
79243;SDS011;68672;42.676;23.356;2023-06-22T13:26:06;9.75;;;7.10;;
79243;SDS011;68672;42.676;23.356;2023-06-22T13:28:32;14.10;;;7.65;;
79243;SDS011;68672;42.676;23.356;2023-06-22T13:30:57;11.23;;;6.80;;
79243;SDS011;68672;42.676;23.356;2023-06-22T13:33:26;10.30;;;8.15;;
79243;SDS011;68672;42.676;23.356;2023-06-22T13:35:51;10.55;;;7.00;;
79243;SDS011;68672;42.676;23.356;2023-06-22T13:38:17;12.70;;;7.68;;
79243;SDS011;68672;42.676;23.356;2023-06-22T13:40:42;10.82;;;7.32;;
79243;SDS011;68672;42.676;23.356;2023-06-22T13:43:08;10.40;;;7.10;;
79243;SDS011;68672;42.676;23.356;2023-06-22T13:45:33;10.75;;;7.00;;
79243;SDS011;68672;42.676;23.356;2023-06-22T13:47:59;10.75;;;7.78;;
79243;SDS011;68672;42.676;23.356;2023-06-22T13:50:24;15.10;;;8.68;;
79243;SDS011;68672;42.676;23.356;2023-06-22T13:52:50;10.05;;;8.40;;
79243;SDS011;68672;42.676;23.356;2023-06-22T13:55:15;10.93;;;7.43;;
79243;SDS011;68672;42.676;23.356;2023-06-22T13:57:41;11.55;;;7.47;;
79243;SDS011;68672;42.676;23.356;2023-06-22T14:00:07;10.98;;;8.50;;
79243;SDS011;68672;42.676;23.356;2023-06-22T14:02:33;12.57;;;8.27;;
79243;SDS011;68672;42.676;23.356;2023-06-22T14:04:59;10.20;;;7.93;;
79243;SDS011;68672;42.676;23.356;2023-06-22T14:07:24;10.65;;;7.63;;
79243;SDS011;68672;42.676;23.356;2023-06-22T14:09:50;10.10;;;7.03;;
79243;SDS011;68672;42.676;23.356;2023-06-22T14:12:15;9.95;;;7.40;;
79243;SDS011;68672;42.676;23.356;2023-06-22T14:14:44;10.43;;;7.40;;
79243;SDS011;68672;42.676;23.356;2023-06-22T14:17:12;8.40;;;7.03;;
79243;SDS011;68672;42.676;23.356;2023-06-22T14:19:37;9.43;;;7.15;;
79243;SDS011;68672;42.676;23.356;2023-06-22T14:22:03;11.82;;;6.18;;
79243;SDS011;68672;42.676;23.356;2023-06-22T14:24:28;10.35;;;6.90;;
79243;SDS011;68672;42.676;23.356;2023-06-22T14:26:57;8.23;;;6.80;;